sensor_id;sensor_type;location;lat;lon;timestamp;P1;durP1;ratioP1;P2;durP2;ratioP2
9729;SDS011;4904;49.152;11.004;2023-05-10T00:00:39;7.88;;;7.15;;
9729;SDS011;4904;49.152;11.004;2023-05-10T00:03:06;7.70;;;7.00;;
9729;SDS011;4904;49.152;11.004;2023-05-10T00:05:34;8.55;;;7.82;;
9729;SDS011;4904;49.152;11.004;2023-05-10T00:08:01;8.25;;;7.13;;
9729;SDS011;4904;49.152;11.004;2023-05-10T00:10:27;9.40;;;8.52;;
9729;SDS011;4904;49.152;11.004;2023-05-10T00:12:55;9.02;;;8.30;;
9729;SDS011;4904;49.152;11.004;2023-05-10T00:15:21;8.73;;;7.82;;
9729;SDS011;4904;49.152;11.004;2023-05-10T00:17:48;8.27;;;7.57;;
9729;SDS011;4904;49.152;11.004;2023-05-10T00:20:15;13.57;;;7.75;;
9729;SDS011;4904;49.152;11.004;2023-05-10T00:22:44;8.02;;;7.32;;
9729;SDS011;4904;49.152;11.004;2023-05-10T00:25:11;8.30;;;7.50;;
9729;SDS011;4904;49.152;11.004;2023-05-10T00:27:37;6.75;;;6.15;;
9729;SDS011;4904;49.152;11.004;2023-05-10T00:30:05;7.72;;;6.03;;
9729;SDS011;4904;49.152;11.004;2023-05-10T00:32:33;7.53;;;6.82;;
9729;SDS011;4904;49.152;11.004;2023-05-10T00:35:00;8.18;;;7.47;;
9729;SDS011;4904;49.152;11.004;2023-05-10T00:37:27;8.52;;;7.72;;
9729;SDS011;4904;49.152;11.004;2023-05-10T00:39:55;8.55;;;7.85;;
9729;SDS011;4904;49.152;11.004;2023-05-10T00:42:22;8.98;;;8.07;;
9729;SDS011;4904;49.152;11.004;2023-05-10T00:44:49;9.52;;;8.73;;
9729;SDS011;4904;49.152;11.004;2023-05-10T00:47:16;9.35;;;8.50;;
9729;SDS011;4904;49.152;11.004;2023-05-10T00:49:43;9.48;;;8.68;;
9729;SDS011;4904;49.152;11.004;2023-05-10T00:52:11;8.98;;;8.15;;
9729;SDS011;4904;49.152;11.004;2023-05-10T00:54:39;9.05;;;8.25;;
9729;SDS011;4904;49.152;11.004;2023-05-10T00:57:07;9.93;;;9.02;;
9729;SDS011;4904;49.152;11.004;2023-05-10T00:59:34;9.45;;;8.63;;
9729;SDS011;4904;49.152;11.004;2023-05-10T01:02:01;10.20;;;8.20;;
9729;SDS011;4904;49.152;11.004;2023-05-10T01:04:28;10.15;;;9.10;;
9729;SDS011;4904;49.152;11.004;2023-05-10T01:06:55;9.48;;;8.52;;
9729;SDS011;4904;49.152;11.004;2023-05-10T01:09:22;9.50;;;8.57;;
9729;SDS011;4904;49.152;11.004;2023-05-10T01:11:51;9.60;;;8.52;;
9729;SDS011;4904;49.152;11.004;2023-05-10T01:14:20;9.30;;;8.40;;
9729;SDS011;4904;49.152;11.004;2023-05-10T01:16:48;7.85;;;7.15;;
9729;SDS011;4904;49.152;11.004;2023-05-10T01:19:17;8.55;;;7.60;;
9729;SDS011;4904;49.152;11.004;2023-05-10T01:21:49;8.68;;;7.88;;
9729;SDS011;4904;49.152;11.004;2023-05-10T01:30:38;7.63;;;6.93;;
9729;SDS011;4904;49.152;11.004;2023-05-10T01:33:23;7.97;;;7.00;;
9729;SDS011;4904;49.152;11.004;2023-05-10T01:35:54;7.88;;;7.13;;
9729;SDS011;4904;49.152;11.004;2023-05-10T01:38:30;7.60;;;6.90;;
9729;SDS011;4904;49.152;11.004;2023-05-10T01:41:06;7.45;;;6.75;;
9729;SDS011;4904;49.152;11.004;2023-05-10T01:43:42;7.20;;;6.50;;
9729;SDS011;4904;49.152;11.004;2023-05-10T01:46:16;7.60;;;6.78;;
9729;SDS011;4904;49.152;11.004;2023-05-10T01:48:48;7.43;;;6.70;;
9729;SDS011;4904;49.152;11.004;2023-05-10T01:51:21;7.32;;;6.72;;
9729;SDS011;4904;49.152;11.004;2023-05-10T01:53:51;7.43;;;6.75;;
9729;SDS011;4904;49.152;11.004;2023-05-10T01:56:25;7.28;;;6.57;;
9729;SDS011;4904;49.152;11.004;2023-05-10T01:58:54;6.30;;;5.70;;
9729;SDS011;4904;49.152;11.004;2023-05-10T02:01:22;6.20;;;5.70;;
9729;SDS011;4904;49.152;11.004;2023-05-10T02:03:53;6.60;;;6.00;;
9729;SDS011;4904;49.152;11.004;2023-05-10T02:06:21;6.95;;;6.35;;
9729;SDS011;4904;49.152;11.004;2023-05-10T02:08:50;6.68;;;6.18;;
9729;SDS011;4904;49.152;11.004;2023-05-10T02:11:18;7.05;;;6.38;;
9729;SDS011;4904;49.152;11.004;2023-05-10T02:13:47;6.43;;;5.70;;
9729;SDS011;4904;49.152;11.004;2023-05-10T02:16:15;5.68;;;4.80;;
9729;SDS011;4904;49.152;11.004;2023-05-10T02:18:43;7.03;;;6.43;;
9729;SDS011;4904;49.152;11.004;2023-05-10T02:21:12;7.65;;;6.43;;
9729;SDS011;4904;49.152;11.004;2023-05-10T02:23:41;6.63;;;6.07;;
9729;SDS011;4904;49.152;11.004;2023-05-10T02:26:09;6.32;;;5.72;;
9729;SDS011;4904;49.152;11.004;2023-05-10T02:28:38;6.57;;;5.97;;
9729;SDS011;4904;49.152;11.004;2023-05-10T02:31:07;6.38;;;5.78;;
9729;SDS011;4904;49.152;11.004;2023-05-10T02:33:35;7.10;;;6.40;;
9729;SDS011;4904;49.152;11.004;2023-05-10T02:36:05;7.00;;;6.40;;
9729;SDS011;4904;49.152;11.004;2023-05-10T02:38:37;6.78;;;6.03;;
9729;SDS011;4904;49.152;11.004;2023-05-10T02:41:05;6.80;;;6.20;;
9729;SDS011;4904;49.152;11.004;2023-05-10T02:43:34;6.50;;;5.90;;
9729;SDS011;4904;49.152;11.004;2023-05-10T02:46:03;4.35;;;4.05;;
9729;SDS011;4904;49.152;11.004;2023-05-10T02:48:30;3.65;;;3.30;;
9729;SDS011;4904;49.152;11.004;2023-05-10T02:50:59;3.65;;;3.35;;
9729;SDS011;4904;49.152;11.004;2023-05-10T02:53:31;2.97;;;2.78;;
9729;SDS011;4904;49.152;11.004;2023-05-10T02:56:01;3.15;;;2.88;;
9729;SDS011;4904;49.152;11.004;2023-05-10T02:58:32;2.78;;;2.58;;
9729;SDS011;4904;49.152;11.004;2023-05-10T03:00:59;2.42;;;2.22;;
9729;SDS011;4904;49.152;11.004;2023-05-10T03:03:26;3.15;;;2.22;;
9729;SDS011;4904;49.152;11.004;2023-05-10T03:05:53;2.40;;;2.20;;
9729;SDS011;4904;49.152;11.004;2023-05-10T03:08:21;2.67;;;2.45;;
9729;SDS011;4904;49.152;11.004;2023-05-10T03:10:51;2.35;;;2.15;;
9729;SDS011;4904;49.152;11.004;2023-05-10T03:13:44;2.60;;;2.00;;
9729;SDS011;4904;49.152;11.004;2023-05-10T03:16:21;2.17;;;2.00;;
9729;SDS011;4904;49.152;11.004;2023-05-10T03:18:54;2.30;;;1.70;;
9729;SDS011;4904;49.152;11.004;2023-05-10T03:21:28;2.80;;;1.85;;
9729;SDS011;4904;49.152;11.004;2023-05-10T03:23:58;1.60;;;1.50;;
9729;SDS011;4904;49.152;11.004;2023-05-10T03:26:29;2.78;;;1.63;;
9729;SDS011;4904;49.152;11.004;2023-05-10T03:28:57;1.50;;;1.40;;
9729;SDS011;4904;49.152;11.004;2023-05-10T03:31:25;1.50;;;1.40;;
9729;SDS011;4904;49.152;11.004;2023-05-10T03:33:52;1.52;;;1.42;;
9729;SDS011;4904;49.152;11.004;2023-05-10T03:36:19;1.35;;;1.27;;
9729;SDS011;4904;49.152;11.004;2023-05-10T03:38:46;1.95;;;1.27;;
9729;SDS011;4904;49.152;11.004;2023-05-10T03:41:13;1.52;;;1.42;;
9729;SDS011;4904;49.152;11.004;2023-05-10T03:43:40;2.65;;;1.25;;
9729;SDS011;4904;49.152;11.004;2023-05-10T03:46:08;1.40;;;1.30;;
9729;SDS011;4904;49.152;11.004;2023-05-10T03:48:35;0.90;;;0.90;;
9729;SDS011;4904;49.152;11.004;2023-05-10T03:51:01;1.08;;;1.08;;
9729;SDS011;4904;49.152;11.004;2023-05-10T03:53:28;1.30;;;1.20;;
9729;SDS011;4904;49.152;11.004;2023-05-10T03:55:55;1.20;;;1.10;;
9729;SDS011;4904;49.152;11.004;2023-05-10T03:58:22;0.93;;;0.93;;
9729;SDS011;4904;49.152;11.004;2023-05-10T04:00:50;0.90;;;0.90;;
9729;SDS011;4904;49.152;11.004;2023-05-10T04:03:18;1.40;;;1.08;;
9729;SDS011;4904;49.152;11.004;2023-05-10T04:05:45;1.00;;;1.00;;
9729;SDS011;4904;49.152;11.004;2023-05-10T04:08:12;1.20;;;1.10;;
9729;SDS011;4904;49.152;11.004;2023-05-10T04:10:39;0.80;;;0.80;;
9729;SDS011;4904;49.152;11.004;2023-05-10T04:13:06;1.00;;;1.00;;
9729;SDS011;4904;49.152;11.004;2023-05-10T04:15:33;1.02;;;1.00;;
9729;SDS011;4904;49.152;11.004;2023-05-10T04:18:00;0.80;;;0.80;;
9729;SDS011;4904;49.152;11.004;2023-05-10T04:20:28;0.80;;;0.80;;
9729;SDS011;4904;49.152;11.004;2023-05-10T04:22:55;0.63;;;0.63;;
9729;SDS011;4904;49.152;11.004;2023-05-10T04:25:22;0.90;;;0.90;;
9729;SDS011;4904;49.152;11.004;2023-05-10T04:27:49;1.00;;;1.00;;
9729;SDS011;4904;49.152;11.004;2023-05-10T04:30:16;1.00;;;0.75;;
9729;SDS011;4904;49.152;11.004;2023-05-10T04:32:43;0.75;;;0.75;;
9729;SDS011;4904;49.152;11.004;2023-05-10T04:35:10;1.13;;;0.90;;
9729;SDS011;4904;49.152;11.004;2023-05-10T04:37:41;0.80;;;0.80;;
9729;SDS011;4904;49.152;11.004;2023-05-10T04:40:08;1.73;;;1.00;;
9729;SDS011;4904;49.152;11.004;2023-05-10T04:42:36;1.20;;;0.75;;
9729;SDS011;4904;49.152;11.004;2023-05-10T04:45:03;1.00;;;1.00;;
9729;SDS011;4904;49.152;11.004;2023-05-10T04:47:30;0.90;;;0.90;;
9729;SDS011;4904;49.152;11.004;2023-05-10T04:49:57;1.08;;;0.80;;
9729;SDS011;4904;49.152;11.004;2023-05-10T04:52:24;0.70;;;0.70;;
9729;SDS011;4904;49.152;11.004;2023-05-10T04:54:52;0.70;;;0.70;;
9729;SDS011;4904;49.152;11.004;2023-05-10T04:57:19;0.75;;;0.70;;
9729;SDS011;4904;49.152;11.004;2023-05-10T04:59:47;0.88;;;0.88;;
9729;SDS011;4904;49.152;11.004;2023-05-10T05:02:14;0.80;;;0.80;;
9729;SDS011;4904;49.152;11.004;2023-05-10T05:04:41;1.45;;;0.80;;
9729;SDS011;4904;49.152;11.004;2023-05-10T05:07:07;0.70;;;0.70;;
9729;SDS011;4904;49.152;11.004;2023-05-10T05:09:34;0.90;;;0.90;;
9729;SDS011;4904;49.152;11.004;2023-05-10T05:12:03;0.85;;;0.85;;
9729;SDS011;4904;49.152;11.004;2023-05-10T05:14:30;1.42;;;1.33;;
9729;SDS011;4904;49.152;11.004;2023-05-10T05:16:57;1.10;;;1.10;;
9729;SDS011;4904;49.152;11.004;2023-05-10T05:19:24;1.08;;;1.08;;
9729;SDS011;4904;49.152;11.004;2023-05-10T05:21:51;1.45;;;1.40;;
9729;SDS011;4904;49.152;11.004;2023-05-10T05:24:18;1.33;;;1.30;;
9729;SDS011;4904;49.152;11.004;2023-05-10T05:26:44;1.20;;;1.20;;
9729;SDS011;4904;49.152;11.004;2023-05-10T05:29:13;3.05;;;1.45;;
9729;SDS011;4904;49.152;11.004;2023-05-10T05:31:40;1.80;;;1.60;;
9729;SDS011;4904;49.152;11.004;2023-05-10T05:34:07;1.40;;;1.30;;
9729;SDS011;4904;49.152;11.004;2023-05-10T05:36:36;1.30;;;1.30;;
9729;SDS011;4904;49.152;11.004;2023-05-10T05:39:05;1.58;;;1.48;;
9729;SDS011;4904;49.152;11.004;2023-05-10T05:41:32;1.52;;;1.42;;
9729;SDS011;4904;49.152;11.004;2023-05-10T05:43:59;3.50;;;1.55;;
9729;SDS011;4904;49.152;11.004;2023-05-10T05:46:27;1.52;;;1.42;;
9729;SDS011;4904;49.152;11.004;2023-05-10T05:48:54;1.38;;;1.33;;
9729;SDS011;4904;49.152;11.004;2023-05-10T05:51:21;1.60;;;1.50;;
9729;SDS011;4904;49.152;11.004;2023-05-10T05:53:48;1.85;;;1.60;;
9729;SDS011;4904;49.152;11.004;2023-05-10T05:56:15;1.83;;;1.73;;
9729;SDS011;4904;49.152;11.004;2023-05-10T05:58:42;1.73;;;1.63;;
9729;SDS011;4904;49.152;11.004;2023-05-10T06:01:09;1.83;;;1.73;;
9729;SDS011;4904;49.152;11.004;2023-05-10T06:03:38;1.70;;;1.60;;
9729;SDS011;4904;49.152;11.004;2023-05-10T06:06:04;1.70;;;1.60;;
9729;SDS011;4904;49.152;11.004;2023-05-10T06:08:31;1.90;;;1.80;;
9729;SDS011;4904;49.152;11.004;2023-05-10T06:10:58;2.08;;;1.98;;
9729;SDS011;4904;49.152;11.004;2023-05-10T06:13:25;2.15;;;1.95;;
9729;SDS011;4904;49.152;11.004;2023-05-10T06:15:56;1.95;;;1.80;;
9729;SDS011;4904;49.152;11.004;2023-05-10T06:18:23;2.42;;;1.80;;
9729;SDS011;4904;49.152;11.004;2023-05-10T06:20:52;1.85;;;1.75;;
9729;SDS011;4904;49.152;11.004;2023-05-10T06:23:19;1.92;;;1.83;;
9729;SDS011;4904;49.152;11.004;2023-05-10T06:25:47;1.60;;;1.50;;
9729;SDS011;4904;49.152;11.004;2023-05-10T06:28:14;1.65;;;1.50;;
9729;SDS011;4904;49.152;11.004;2023-05-10T06:30:40;1.50;;;1.40;;
9729;SDS011;4904;49.152;11.004;2023-05-10T06:33:07;2.90;;;1.60;;
9729;SDS011;4904;49.152;11.004;2023-05-10T06:35:34;1.55;;;1.45;;
9729;SDS011;4904;49.152;11.004;2023-05-10T06:38:03;1.60;;;1.50;;
9729;SDS011;4904;49.152;11.004;2023-05-10T06:40:30;1.55;;;1.45;;
9729;SDS011;4904;49.152;11.004;2023-05-10T06:42:57;1.70;;;1.60;;
9729;SDS011;4904;49.152;11.004;2023-05-10T06:45:24;1.67;;;1.58;;
9729;SDS011;4904;49.152;11.004;2023-05-10T06:47:51;1.70;;;1.60;;
9729;SDS011;4904;49.152;11.004;2023-05-10T06:50:18;2.20;;;1.77;;
9729;SDS011;4904;49.152;11.004;2023-05-10T06:52:45;1.63;;;1.45;;
9729;SDS011;4904;49.152;11.004;2023-05-10T06:55:13;3.33;;;1.58;;
9729;SDS011;4904;49.152;11.004;2023-05-10T06:57:40;2.78;;;1.70;;
9729;SDS011;4904;49.152;11.004;2023-05-10T07:00:07;1.60;;;1.50;;
9729;SDS011;4904;49.152;11.004;2023-05-10T07:02:35;2.08;;;1.90;;
9729;SDS011;4904;49.152;11.004;2023-05-10T07:05:02;2.00;;;1.75;;
9729;SDS011;4904;49.152;11.004;2023-05-10T07:07:30;1.92;;;1.83;;
9729;SDS011;4904;49.152;11.004;2023-05-10T07:09:56;3.65;;;1.67;;
9729;SDS011;4904;49.152;11.004;2023-05-10T07:12:25;1.70;;;1.60;;
9729;SDS011;4904;49.152;11.004;2023-05-10T07:14:52;2.45;;;1.73;;
9729;SDS011;4904;49.152;11.004;2023-05-10T07:17:19;2.58;;;1.88;;
9729;SDS011;4904;49.152;11.004;2023-05-10T07:19:46;3.25;;;1.75;;
9729;SDS011;4904;49.152;11.004;2023-05-10T07:22:12;1.70;;;1.60;;
9729;SDS011;4904;49.152;11.004;2023-05-10T07:24:39;1.65;;;1.55;;
9729;SDS011;4904;49.152;11.004;2023-05-10T07:27:06;1.80;;;1.70;;
9729;SDS011;4904;49.152;11.004;2023-05-10T07:29:35;1.80;;;1.70;;
9729;SDS011;4904;49.152;11.004;2023-05-10T07:32:03;2.10;;;2.00;;
9729;SDS011;4904;49.152;11.004;2023-05-10T07:34:30;1.95;;;1.85;;
9729;SDS011;4904;49.152;11.004;2023-05-10T07:36:57;2.05;;;1.85;;
9729;SDS011;4904;49.152;11.004;2023-05-10T07:39:25;2.08;;;1.90;;
9729;SDS011;4904;49.152;11.004;2023-05-10T07:41:52;2.00;;;1.90;;
9729;SDS011;4904;49.152;11.004;2023-05-10T07:44:19;2.03;;;1.92;;
9729;SDS011;4904;49.152;11.004;2023-05-10T07:46:47;2.47;;;2.00;;
9729;SDS011;4904;49.152;11.004;2023-05-10T07:49:14;1.83;;;1.73;;
9729;SDS011;4904;49.152;11.004;2023-05-10T07:51:41;2.58;;;1.67;;
9729;SDS011;4904;49.152;11.004;2023-05-10T07:54:08;2.20;;;2.00;;
9729;SDS011;4904;49.152;11.004;2023-05-10T07:56:35;2.20;;;2.00;;
9729;SDS011;4904;49.152;11.004;2023-05-10T07:59:02;1.88;;;1.55;;
9729;SDS011;4904;49.152;11.004;2023-05-10T08:01:30;1.67;;;1.58;;
9729;SDS011;4904;49.152;11.004;2023-05-10T08:03:59;1.70;;;1.60;;
9729;SDS011;4904;49.152;11.004;2023-05-10T08:06:27;1.80;;;1.70;;
9729;SDS011;4904;49.152;11.004;2023-05-10T08:08:55;1.80;;;1.70;;
9729;SDS011;4904;49.152;11.004;2023-05-10T08:11:22;1.70;;;1.60;;
9729;SDS011;4904;49.152;11.004;2023-05-10T08:13:50;2.15;;;1.50;;
9729;SDS011;4904;49.152;11.004;2023-05-10T08:16:17;1.55;;;1.45;;
9729;SDS011;4904;49.152;11.004;2023-05-10T08:18:44;2.53;;;2.00;;
9729;SDS011;4904;49.152;11.004;2023-05-10T08:21:13;1.60;;;1.50;;
9729;SDS011;4904;49.152;11.004;2023-05-10T08:23:41;2.67;;;1.40;;
9729;SDS011;4904;49.152;11.004;2023-05-10T08:26:08;1.70;;;1.60;;
9729;SDS011;4904;49.152;11.004;2023-05-10T08:28:35;1.60;;;1.50;;
9729;SDS011;4904;49.152;11.004;2023-05-10T08:31:03;2.50;;;1.50;;
9729;SDS011;4904;49.152;11.004;2023-05-10T08:33:31;1.73;;;1.63;;
9729;SDS011;4904;49.152;11.004;2023-05-10T08:35:58;1.75;;;1.50;;
9729;SDS011;4904;49.152;11.004;2023-05-10T08:38:26;1.73;;;1.50;;
9729;SDS011;4904;49.152;11.004;2023-05-10T08:40:53;2.03;;;1.90;;
9729;SDS011;4904;49.152;11.004;2023-05-10T08:43:23;2.70;;;1.95;;
9729;SDS011;4904;49.152;11.004;2023-05-10T08:45:53;2.10;;;1.90;;
9729;SDS011;4904;49.152;11.004;2023-05-10T08:48:21;3.72;;;1.67;;
9729;SDS011;4904;49.152;11.004;2023-05-10T08:50:51;1.30;;;1.27;;
9729;SDS011;4904;49.152;11.004;2023-05-10T08:53:20;1.50;;;1.40;;
9729;SDS011;4904;49.152;11.004;2023-05-10T08:55:51;2.08;;;1.30;;
9729;SDS011;4904;49.152;11.004;2023-05-10T08:58:19;1.90;;;1.67;;
9729;SDS011;4904;49.152;11.004;2023-05-10T09:00:48;1.60;;;1.50;;
9729;SDS011;4904;49.152;11.004;2023-05-10T09:03:17;1.98;;;1.80;;
9729;SDS011;4904;49.152;11.004;2023-05-10T09:05:44;2.03;;;1.75;;
9729;SDS011;4904;49.152;11.004;2023-05-10T09:08:11;1.67;;;1.50;;
9729;SDS011;4904;49.152;11.004;2023-05-10T09:10:41;1.50;;;1.40;;
9729;SDS011;4904;49.152;11.004;2023-05-10T09:13:11;1.65;;;1.52;;
9729;SDS011;4904;49.152;11.004;2023-05-10T09:15:38;1.55;;;1.45;;
9729;SDS011;4904;49.152;11.004;2023-05-10T09:18:05;1.55;;;1.38;;
9729;SDS011;4904;49.152;11.004;2023-05-10T09:20:32;2.55;;;1.60;;
9729;SDS011;4904;49.152;11.004;2023-05-10T09:22:59;2.38;;;1.38;;
9729;SDS011;4904;49.152;11.004;2023-05-10T09:25:26;1.60;;;1.50;;
9729;SDS011;4904;49.152;11.004;2023-05-10T09:27:53;2.22;;;1.83;;
9729;SDS011;4904;49.152;11.004;2023-05-10T09:30:24;2.03;;;1.58;;
9729;SDS011;4904;49.152;11.004;2023-05-10T09:32:53;1.45;;;1.33;;
9729;SDS011;4904;49.152;11.004;2023-05-10T09:35:21;2.30;;;1.48;;
9729;SDS011;4904;49.152;11.004;2023-05-10T09:37:50;2.67;;;1.80;;
9729;SDS011;4904;49.152;11.004;2023-05-10T09:40:19;2.08;;;1.95;;
9729;SDS011;4904;49.152;11.004;2023-05-10T09:42:51;2.78;;;1.90;;
9729;SDS011;4904;49.152;11.004;2023-05-10T09:45:19;2.33;;;1.73;;
9729;SDS011;4904;49.152;11.004;2023-05-10T09:47:48;1.75;;;1.58;;
9729;SDS011;4904;49.152;11.004;2023-05-10T09:50:15;3.85;;;2.20;;
9729;SDS011;4904;49.152;11.004;2023-05-10T09:52:48;3.17;;;1.67;;
9729;SDS011;4904;49.152;11.004;2023-05-10T09:55:16;2.65;;;1.48;;
9729;SDS011;4904;49.152;11.004;2023-05-10T09:57:45;1.65;;;1.50;;
9729;SDS011;4904;49.152;11.004;2023-05-10T10:00:16;1.77;;;1.65;;
9729;SDS011;4904;49.152;11.004;2023-05-10T10:02:45;2.10;;;1.80;;
9729;SDS011;4904;49.152;11.004;2023-05-10T10:05:14;2.10;;;1.90;;
9729;SDS011;4904;49.152;11.004;2023-05-10T10:07:41;2.38;;;1.90;;
9729;SDS011;4904;49.152;11.004;2023-05-10T10:10:09;2.20;;;1.95;;
9729;SDS011;4904;49.152;11.004;2023-05-10T10:12:38;1.90;;;1.80;;
9729;SDS011;4904;49.152;11.004;2023-05-10T10:15:07;2.20;;;2.00;;
9729;SDS011;4904;49.152;11.004;2023-05-10T10:17:35;2.47;;;1.88;;
9729;SDS011;4904;49.152;11.004;2023-05-10T10:20:05;4.35;;;2.20;;
9729;SDS011;4904;49.152;11.004;2023-05-10T10:22:33;3.05;;;2.20;;
9729;SDS011;4904;49.152;11.004;2023-05-10T10:25:00;3.47;;;2.40;;
9729;SDS011;4904;49.152;11.004;2023-05-10T10:27:28;2.17;;;2.00;;
9729;SDS011;4904;49.152;11.004;2023-05-10T10:30:09;2.10;;;2.00;;
9729;SDS011;4904;49.152;11.004;2023-05-10T10:32:46;2.17;;;1.80;;
9729;SDS011;4904;49.152;11.004;2023-05-10T10:35:48;1.73;;;1.63;;
9729;SDS011;4904;49.152;11.004;2023-05-10T10:38:15;1.30;;;1.20;;
9729;SDS011;4904;49.152;11.004;2023-05-10T10:40:42;1.13;;;1.10;;
9729;SDS011;4904;49.152;11.004;2023-05-10T10:43:22;1.30;;;1.20;;
9729;SDS011;4904;49.152;11.004;2023-05-10T10:46:09;1.45;;;1.35;;
9729;SDS011;4904;49.152;11.004;2023-05-10T10:48:38;2.17;;;1.40;;
9729;SDS011;4904;49.152;11.004;2023-05-10T10:51:07;1.30;;;1.30;;
9729;SDS011;4904;49.152;11.004;2023-05-10T10:53:34;2.05;;;1.48;;
9729;SDS011;4904;49.152;11.004;2023-05-10T10:56:06;1.25;;;1.15;;
9729;SDS011;4904;49.152;11.004;2023-05-10T10:58:34;2.40;;;1.40;;
9729;SDS011;4904;49.152;11.004;2023-05-10T11:01:09;2.97;;;1.48;;
9729;SDS011;4904;49.152;11.004;2023-05-10T11:03:38;1.55;;;1.40;;
9729;SDS011;4904;49.152;11.004;2023-05-10T11:06:06;1.52;;;1.42;;
9729;SDS011;4904;49.152;11.004;2023-05-10T11:08:34;1.75;;;1.50;;
9729;SDS011;4904;49.152;11.004;2023-05-10T11:11:08;1.50;;;1.40;;
9729;SDS011;4904;49.152;11.004;2023-05-10T11:13:39;1.38;;;1.27;;
9729;SDS011;4904;49.152;11.004;2023-05-10T11:16:11;1.60;;;1.23;;
9729;SDS011;4904;49.152;11.004;2023-05-10T11:18:52;1.60;;;1.50;;
9729;SDS011;4904;49.152;11.004;2023-05-10T11:21:21;2.67;;;1.65;;
9729;SDS011;4904;49.152;11.004;2023-05-10T11:23:49;2.53;;;1.50;;
9729;SDS011;4904;49.152;11.004;2023-05-10T11:26:19;1.63;;;1.40;;
9729;SDS011;4904;49.152;11.004;2023-05-10T11:28:50;1.38;;;1.27;;
9729;SDS011;4904;49.152;11.004;2023-05-10T11:31:17;1.75;;;1.17;;
9729;SDS011;4904;49.152;11.004;2023-05-10T11:33:46;1.02;;;1.02;;
9729;SDS011;4904;49.152;11.004;2023-05-10T11:36:16;1.30;;;1.20;;
9729;SDS011;4904;49.152;11.004;2023-05-10T11:38:45;1.50;;;1.40;;
9729;SDS011;4904;49.152;11.004;2023-05-10T11:41:13;1.38;;;1.27;;
9729;SDS011;4904;49.152;11.004;2023-05-10T11:43:41;2.42;;;0.98;;
9729;SDS011;4904;49.152;11.004;2023-05-10T11:46:10;1.58;;;1.48;;
9729;SDS011;4904;49.152;11.004;2023-05-10T11:48:38;1.67;;;1.50;;
9729;SDS011;4904;49.152;11.004;2023-05-10T11:51:06;1.85;;;1.42;;
9729;SDS011;4904;49.152;11.004;2023-05-10T11:53:33;1.60;;;1.50;;
9729;SDS011;4904;49.152;11.004;2023-05-10T11:56:05;2.10;;;1.90;;
9729;SDS011;4904;49.152;11.004;2023-05-10T11:58:32;3.17;;;1.65;;
9729;SDS011;4904;49.152;11.004;2023-05-10T12:01:00;1.70;;;1.60;;
9729;SDS011;4904;49.152;11.004;2023-05-10T12:03:27;2.90;;;1.60;;
9729;SDS011;4904;49.152;11.004;2023-05-10T12:05:55;3.85;;;1.92;;
9729;SDS011;4904;49.152;11.004;2023-05-10T12:08:23;1.80;;;1.70;;
9729;SDS011;4904;49.152;11.004;2023-05-10T12:10:54;1.90;;;1.80;;
9729;SDS011;4904;49.152;11.004;2023-05-10T12:13:32;2.20;;;2.00;;
9729;SDS011;4904;49.152;11.004;2023-05-10T12:16:12;2.58;;;1.90;;
9729;SDS011;4904;49.152;11.004;2023-05-10T12:18:40;1.70;;;1.60;;
9729;SDS011;4904;49.152;11.004;2023-05-10T12:21:07;2.08;;;1.88;;
9729;SDS011;4904;49.152;11.004;2023-05-10T12:23:36;2.20;;;2.03;;
9729;SDS011;4904;49.152;11.004;2023-05-10T12:26:05;1.88;;;1.70;;
9729;SDS011;4904;49.152;11.004;2023-05-10T12:28:32;2.00;;;1.90;;
9729;SDS011;4904;49.152;11.004;2023-05-10T12:31:00;1.90;;;1.80;;
9729;SDS011;4904;49.152;11.004;2023-05-10T12:33:34;2.00;;;1.90;;
9729;SDS011;4904;49.152;11.004;2023-05-10T12:36:04;1.90;;;1.80;;
9729;SDS011;4904;49.152;11.004;2023-05-10T12:38:32;1.75;;;1.60;;
9729;SDS011;4904;49.152;11.004;2023-05-10T12:41:00;2.00;;;1.83;;
9729;SDS011;4904;49.152;11.004;2023-05-10T12:43:29;2.30;;;1.90;;
9729;SDS011;4904;49.152;11.004;2023-05-10T12:45:57;1.75;;;1.58;;
9729;SDS011;4904;49.152;11.004;2023-05-10T12:48:24;2.70;;;1.70;;
9729;SDS011;4904;49.152;11.004;2023-05-10T12:50:53;1.63;;;1.52;;
9729;SDS011;4904;49.152;11.004;2023-05-10T12:53:20;1.70;;;1.60;;
9729;SDS011;4904;49.152;11.004;2023-05-10T12:55:47;1.95;;;1.65;;
9729;SDS011;4904;49.152;11.004;2023-05-10T12:58:14;1.40;;;1.38;;
9729;SDS011;4904;49.152;11.004;2023-05-10T13:00:42;1.58;;;1.45;;
9729;SDS011;4904;49.152;11.004;2023-05-10T13:03:10;1.92;;;1.80;;
9729;SDS011;4904;49.152;11.004;2023-05-10T13:05:37;1.65;;;1.33;;
9729;SDS011;4904;49.152;11.004;2023-05-10T13:08:04;1.60;;;1.50;;
9729;SDS011;4904;49.152;11.004;2023-05-10T13:10:31;1.70;;;1.60;;
9729;SDS011;4904;49.152;11.004;2023-05-10T13:12:58;2.55;;;1.60;;
9729;SDS011;4904;49.152;11.004;2023-05-10T13:15:25;1.85;;;1.60;;
9729;SDS011;4904;49.152;11.004;2023-05-10T13:17:54;1.65;;;1.48;;
9729;SDS011;4904;49.152;11.004;2023-05-10T13:20:20;2.85;;;1.88;;
9729;SDS011;4904;49.152;11.004;2023-05-10T13:22:47;1.95;;;1.60;;
9729;SDS011;4904;49.152;11.004;2023-05-10T13:25:14;2.53;;;1.45;;
9729;SDS011;4904;49.152;11.004;2023-05-10T13:27:41;1.52;;;1.30;;
9729;SDS011;4904;49.152;11.004;2023-05-10T13:30:08;1.95;;;1.35;;
9729;SDS011;4904;49.152;11.004;2023-05-10T13:32:36;1.50;;;1.40;;
9729;SDS011;4904;49.152;11.004;2023-05-10T13:35:05;1.30;;;1.30;;
9729;SDS011;4904;49.152;11.004;2023-05-10T13:37:33;1.88;;;1.75;;
9729;SDS011;4904;49.152;11.004;2023-05-10T13:40:02;1.80;;;1.70;;
9729;SDS011;4904;49.152;11.004;2023-05-10T13:42:30;1.77;;;1.67;;
9729;SDS011;4904;49.152;11.004;2023-05-10T13:44:58;1.60;;;1.50;;
9729;SDS011;4904;49.152;11.004;2023-05-10T13:47:25;2.88;;;1.75;;
9729;SDS011;4904;49.152;11.004;2023-05-10T13:49:52;1.50;;;1.40;;
9729;SDS011;4904;49.152;11.004;2023-05-10T13:52:20;1.50;;;1.40;;
9729;SDS011;4904;49.152;11.004;2023-05-10T13:54:47;1.50;;;1.40;;
9729;SDS011;4904;49.152;11.004;2023-05-10T13:57:14;1.92;;;1.30;;
9729;SDS011;4904;49.152;11.004;2023-05-10T13:59:41;1.20;;;1.10;;
9729;SDS011;4904;49.152;11.004;2023-05-10T14:02:08;1.30;;;1.30;;
9729;SDS011;4904;49.152;11.004;2023-05-10T14:04:35;1.58;;;1.20;;
9729;SDS011;4904;49.152;11.004;2023-05-10T14:07:02;1.38;;;1.27;;
9729;SDS011;4904;49.152;11.004;2023-05-10T14:09:31;1.60;;;1.23;;
9729;SDS011;4904;49.152;11.004;2023-05-10T14:11:57;1.40;;;1.27;;
9729;SDS011;4904;49.152;11.004;2023-05-10T14:14:24;1.48;;;1.38;;
9729;SDS011;4904;49.152;11.004;2023-05-10T14:16:51;1.45;;;1.35;;
9729;SDS011;4904;49.152;11.004;2023-05-10T14:19:18;2.03;;;1.58;;
9729;SDS011;4904;49.152;11.004;2023-05-10T14:21:45;1.80;;;1.70;;
9729;SDS011;4904;49.152;11.004;2023-05-10T14:24:12;2.45;;;1.63;;
9729;SDS011;4904;49.152;11.004;2023-05-10T14:26:40;1.83;;;1.27;;
9729;SDS011;4904;49.152;11.004;2023-05-10T14:29:07;1.40;;;1.30;;
9729;SDS011;4904;49.152;11.004;2023-05-10T14:31:34;1.77;;;1.58;;
9729;SDS011;4904;49.152;11.004;2023-05-10T14:34:01;1.50;;;1.40;;
9729;SDS011;4904;49.152;11.004;2023-05-10T14:36:28;1.67;;;1.50;;
9729;SDS011;4904;49.152;11.004;2023-05-10T14:38:55;2.35;;;1.50;;
9729;SDS011;4904;49.152;11.004;2023-05-10T14:41:22;2.50;;;1.40;;
9729;SDS011;4904;49.152;11.004;2023-05-10T14:43:51;1.45;;;1.35;;
9729;SDS011;4904;49.152;11.004;2023-05-10T14:46:18;1.40;;;1.30;;
9729;SDS011;4904;49.152;11.004;2023-05-10T14:48:44;1.77;;;1.40;;
9729;SDS011;4904;49.152;11.004;2023-05-10T14:51:11;1.70;;;1.60;;
9729;SDS011;4904;49.152;11.004;2023-05-10T14:53:38;1.70;;;1.60;;
9729;SDS011;4904;49.152;11.004;2023-05-10T14:56:05;1.70;;;1.60;;
9729;SDS011;4904;49.152;11.004;2023-05-10T14:58:32;2.38;;;1.45;;
9729;SDS011;4904;49.152;11.004;2023-05-10T15:01:00;2.70;;;1.70;;
9729;SDS011;4904;49.152;11.004;2023-05-10T15:03:27;1.50;;;1.40;;
9729;SDS011;4904;49.152;11.004;2023-05-10T15:05:54;1.70;;;1.60;;
9729;SDS011;4904;49.152;11.004;2023-05-10T15:08:22;1.30;;;1.30;;
9729;SDS011;4904;49.152;11.004;2023-05-10T15:10:49;1.88;;;1.77;;
9729;SDS011;4904;49.152;11.004;2023-05-10T15:13:16;1.55;;;1.45;;